Time;durP1;ratioP1;P1;durP2;ratioP2;P2;SDS_P1;SDS_P2;PMS_P1;PMS_P2;Temp;Humidity;BMP_temperature;BMP_pressure;BME280_temperature;BME280_humidity;BME280_pressure;Samples;Min_cycle;Max_cycle;Signal;HPM_P1;HPM_P2
2022/01/03 00:00:53;;;;;;;;;;;8.10;99.90;;;;;;5113080;28;19920;-84
2022/01/03 00:03:19;;;;;;;;;;;8.10;99.90;;;;;;5101320;28;19973;-81
2022/01/03 00:05:45;;;;;;;;;;;8.10;99.90;;;;;;5102753;28;19927;-87
2022/01/03 00:08:10;;;;;;;;;;;8.10;99.90;;;;;;5102997;28;19969;-81
2022/01/03 00:10:36;;;;;;;;;;;8.10;99.90;;;;;;5118796;28;19924;-88
2022/01/03 00:13:03;;;;;;;;;;;8.10;99.90;;;;;;5102680;28;20368;-86
2022/01/03 00:15:29;;;;;;;;;;;8.00;99.90;;;;;;5101556;28;20327;-82
2022/01/03 00:17:54;;;;;;;;;;;8.00;99.90;;;;;;5102174;28;19923;-82
2022/01/03 00:20:20;;;;;;;;;;;8.10;99.90;;;;;;5100616;28;19916;-81
2022/01/03 00:22:52;;;;;;;;;;;8.10;99.90;;;;;;5102553;28;20026;-86
2022/01/03 00:25:20;;;;;;;;;;;8.10;99.90;;;;;;5102332;28;19920;-81
2022/01/03 00:28:05;;;;;;;;;;;8.10;99.90;;;;;;5117711;28;19920;-81
2022/01/03 00:30:34;;;;;;;;;;;8.10;99.90;;;;;;5101235;28;19920;-88
2022/01/03 00:33:01;;;;;;;;;;;8.10;99.90;;;;;;5117829;28;19923;-81
2022/01/03 00:35:28;;;;;;;;;;;8.10;99.90;;;;;;5103240;28;19931;-86
2022/01/03 00:37:53;;;;;;;;;;;8.10;99.90;;;;;;5100607;28;19916;-87
2022/01/03 00:40:20;;;;;;;;;;;8.10;99.90;;;;;;5102272;28;19920;-81
2022/01/03 00:42:45;;;;;;;;;;;8.10;99.90;;;;;;5101862;28;19980;-87
2022/01/03 00:45:11;;;;;;;;;;;8.10;99.90;;;;;;5098555;28;19955;-81
2022/01/03 00:47:36;;;;;;;;;;;8.00;99.90;;;;;;5115414;28;20388;-81
2022/01/03 00:50:09;;;;;;;;;;;8.10;99.90;;;;;;5099316;28;20002;-81
2022/01/03 00:52:35;;;;;;;;;;;8.10;99.90;;;;;;5099767;28;19927;-81
2022/01/03 00:55:01;;;;;;;;;;;8.10;99.90;;;;;;5115307;28;19916;-81
2022/01/03 00:57:33;;;;;;;;;;;8.10;99.90;;;;;;5100320;28;19931;-81
2022/01/03 01:00:02;;;;;;;;;;;8.20;99.90;;;;;;5101313;28;20294;-82
2022/01/03 01:02:34;;;;;;;;;;;8.10;99.90;;;;;;5101814;28;19920;-81
2022/01/03 01:05:01;;;;;;;;;;;8.10;99.90;;;;;;5100322;28;19926;-81
2022/01/03 01:07:29;;;;;;;;;;;8.20;99.90;;;;;;5101580;28;20456;-81
2022/01/03 01:09:55;;;;;;;;;;;8.20;99.90;;;;;;5099409;28;19960;-86
2022/01/03 01:12:21;;;;;;;;;;;8.20;99.90;;;;;;5101139;28;19916;-81
2022/01/03 01:14:50;;;;;;;;;;;8.20;99.90;;;;;;5097792;28;19924;-82
2022/01/03 01:17:15;;;;;;;;;;;8.20;99.90;;;;;;5098919;28;20370;-81
2022/01/03 01:19:41;;;;;;;;;;;8.20;99.90;;;;;;5099720;28;19927;-81
2022/01/03 01:22:07;;;;;;;;;;;8.30;99.90;;;;;;5099214;28;20346;-83
2022/01/03 01:24:44;;;;;;;;;;;8.30;99.90;;;;;;5098346;28;19942;-86
2022/01/03 01:29:54;;;;;;;;;;;8.30;99.90;;;;;;5098015;28;19924;-87
2022/01/03 01:32:19;;;;;;;;;;;8.40;99.90;;;;;;5100623;28;19927;-81
2022/01/03 01:34:46;;;;;;;;;;;8.30;99.90;;;;;;5098153;28;19943;-81
2022/01/03 01:37:12;;;;;;;;;;;8.30;99.90;;;;;;5098992;28;20011;-81
2022/01/03 01:39:38;;;;;;;;;;;8.30;99.90;;;;;;5097785;28;19967;-82
2022/01/03 01:42:04;;;;;;;;;;;8.20;99.90;;;;;;5099665;28;19954;-81
2022/01/03 01:44:32;;;;;;;;;;;8.20;99.90;;;;;;5101285;28;20019;-85
2022/01/03 01:47:01;;;;;;;;;;;8.30;99.90;;;;;;5101014;28;20305;-82
2022/01/03 01:49:27;;;;;;;;;;;8.20;99.90;;;;;;5115455;28;19923;-81
2022/01/03 01:51:59;;;;;;;;;;;8.20;99.90;;;;;;5098822;28;20020;-86
2022/01/03 01:54:48;;;;;;;;;;;8.20;99.90;;;;;;5099759;28;19927;-81
2022/01/03 01:57:17;;;;;;;;;;;8.20;99.90;;;;;;5115542;28;20761;-81
2022/01/03 01:59:55;;;;;;;;;;;8.50;99.90;;;;;;5098884;28;19927;-81
2022/01/03 02:02:26;;;;;;;;;;;8.30;99.90;;;;;;5098996;28;19920;-81
2022/01/03 02:04:57;;;;;;;;;;;8.30;99.90;;;;;;5096501;28;20347;-87
2022/01/03 02:07:44;;;;;;;;;;;8.30;99.90;;;;;;5097453;28;19923;-81
2022/01/03 02:10:11;;;;;;;;;;;8.30;99.90;;;;;;5099123;28;19920;-81
2022/01/03 02:12:39;;;;;;;;;;;8.50;99.90;;;;;;5097215;28;19920;-81
2022/01/03 02:15:08;;;;;;;;;;;8.50;99.90;;;;;;5099689;28;19927;-81
2022/01/03 02:17:33;;;;;;;;;;;8.30;99.90;;;;;;5099993;28;19937;-86
2022/01/03 02:20:05;;;;;;;;;;;8.30;99.90;;;;;;5100624;28;19955;-81
2022/01/03 02:22:30;;;;;;;;;;;8.30;99.90;;;;;;5115133;28;19927;-81
2022/01/03 02:24:56;;;;;;;;;;;8.20;99.90;;;;;;5099588;28;19923;-86
2022/01/03 02:27:22;;;;;;;;;;;8.10;99.90;;;;;;5100921;28;19916;-81
2022/01/03 02:29:47;;;;;;;;;;;8.20;99.90;;;;;;5099763;28;19927;-81
2022/01/03 02:32:13;;;;;;;;;;;8.10;99.90;;;;;;5099896;28;19927;-81
2022/01/03 02:34:38;;;;;;;;;;;8.10;99.90;;;;;;5115610;28;19916;-81
2022/01/03 02:37:04;;;;;;;;;;;8.20;99.90;;;;;;5115701;28;20618;-81
2022/01/03 02:39:29;;;;;;;;;;;8.10;99.90;;;;;;5099637;28;19915;-81
2022/01/03 02:41:55;;;;;;;;;;;8.10;99.90;;;;;;5098539;28;19927;-81
2022/01/03 02:44:20;;;;;;;;;;;8.00;99.90;;;;;;5099928;28;19942;-85
2022/01/03 02:46:46;;;;;;;;;;;8.00;99.90;;;;;;5115715;28;19931;-81
2022/01/03 02:49:11;;;;;;;;;;;8.00;99.90;;;;;;5098724;28;19920;-87
2022/01/03 02:51:37;;;;;;;;;;;8.00;99.90;;;;;;5114737;28;19919;-81
2022/01/03 02:54:03;;;;;;;;;;;8.00;99.90;;;;;;5102632;28;19915;-81
2022/01/03 02:56:32;;;;;;;;;;;8.00;99.90;;;;;;5099499;28;20012;-81
2022/01/03 02:58:58;;;;;;;;;;;8.00;99.90;;;;;;5099400;28;19916;-81
2022/01/03 03:01:24;;;;;;;;;;;8.00;99.90;;;;;;5100046;28;20375;-81
2022/01/03 03:03:50;;;;;;;;;;;8.00;99.90;;;;;;5099453;28;19974;-87
2022/01/03 03:06:16;;;;;;;;;;;8.00;99.90;;;;;;5097861;28;19924;-81
2022/01/03 03:08:42;;;;;;;;;;;8.00;99.90;;;;;;5099659;28;19943;-87
2022/01/03 03:11:07;;;;;;;;;;;8.20;99.90;;;;;;5100128;28;19920;-81
2022/01/03 03:13:33;;;;;;;;;;;8.00;99.90;;;;;;5133359;28;19904;-85
2022/01/03 03:15:59;;;;;;;;;;;8.20;99.90;;;;;;5117435;28;19927;-81
2022/01/03 03:18:25;;;;;;;;;;;8.00;99.90;;;;;;5099763;28;19920;-81
2022/01/03 03:20:54;;;;;;;;;;;8.00;99.90;;;;;;5099528;28;19963;-87
2022/01/03 03:23:20;;;;;;;;;;;8.00;99.90;;;;;;5098816;28;20285;-81
2022/01/03 03:25:46;;;;;;;;;;;8.00;99.90;;;;;;5098376;28;19924;-87
2022/01/03 03:28:12;;;;;;;;;;;8.10;99.90;;;;;;5113409;28;19927;-81
2022/01/03 03:30:40;;;;;;;;;;;8.20;99.90;;;;;;5099900;28;19920;-81
2022/01/03 03:33:05;;;;;;;;;;;8.20;99.90;;;;;;5098801;28;19920;-81
2022/01/03 03:35:31;;;;;;;;;;;8.10;99.90;;;;;;5102351;28;20014;-81
2022/01/03 03:37:56;;;;;;;;;;;8.20;99.90;;;;;;5103849;28;19987;-84
2022/01/03 03:40:22;;;;;;;;;;;8.20;99.90;;;;;;5106141;28;19923;-81
2022/01/03 03:42:47;;;;;;;;;;;8.20;99.90;;;;;;5120815;28;19920;-81
2022/01/03 03:45:13;;;;;;;;;;;8.20;99.90;;;;;;5101309;28;19920;-81
2022/01/03 03:47:39;;;;;;;;;;;8.20;99.90;;;;;;5099897;28;20354;-82
2022/01/03 03:50:05;;;;;;;;;;;8.10;99.90;;;;;;5100689;28;19927;-81
2022/01/03 03:52:30;;;;;;;;;;;8.10;99.90;;;;;;5101683;28;19920;-81
2022/01/03 03:54:56;;;;;;;;;;;8.10;99.90;;;;;;5117266;28;19942;-87
2022/01/03 03:57:21;;;;;;;;;;;8.10;99.90;;;;;;5102028;28;20294;-81
2022/01/03 03:59:47;;;;;;;;;;;8.10;99.90;;;;;;5100712;28;20270;-86
2022/01/03 04:02:13;;;;;;;;;;;8.00;99.90;;;;;;5100443;28;20293;-81
2022/01/03 04:04:38;;;;;;;;;;;8.00;99.90;;;;;;5117208;28;19942;-82
2022/01/03 04:07:04;;;;;;;;;;;8.00;99.90;;;;;;5101700;28;20383;-81
2022/01/03 04:09:29;;;;;;;;;;;8.10;99.90;;;;;;5100961;28;20010;-81
2022/01/03 04:11:55;;;;;;;;;;;8.00;99.90;;;;;;5101657;28;20393;-87
2022/01/03 04:14:21;;;;;;;;;;;8.00;99.90;;;;;;5099898;28;19999;-81
2022/01/03 04:16:46;;;;;;;;;;;8.00;99.90;;;;;;5117750;28;19971;-88
2022/01/03 04:19:12;;;;;;;;;;;8.00;99.90;;;;;;5101057;28;19920;-86
2022/01/03 04:21:39;;;;;;;;;;;8.00;99.90;;;;;;5101308;28;20320;-81
2022/01/03 04:24:06;;;;;;;;;;;8.00;99.90;;;;;;5116178;28;19920;-87
2022/01/03 04:26:31;;;;;;;;;;;7.90;99.90;;;;;;5100312;28;19989;-81
2022/01/03 04:28:57;;;;;;;;;;;8.00;99.90;;;;;;5116552;28;19920;-82
2022/01/03 04:31:23;;;;;;;;;;;8.00;99.90;;;;;;5117916;28;19920;-81
2022/01/03 04:33:48;;;;;;;;;;;8.20;99.90;;;;;;5101578;28;19924;-82
2022/01/03 04:36:14;;;;;;;;;;;8.00;99.90;;;;;;5101399;28;20259;-89
2022/01/03 04:38:39;;;;;;;;;;;8.00;99.90;;;;;;5101269;28;19920;-89
2022/01/03 04:41:05;;;;;;;;;;;8.10;99.90;;;;;;5101933;28;19951;-81
2022/01/03 04:43:31;;;;;;;;;;;8.00;99.90;;;;;;5101649;28;19920;-81
2022/01/03 04:45:56;;;;;;;;;;;8.00;99.90;;;;;;5102091;28;20479;-81
2022/01/03 04:48:22;;;;;;;;;;;8.00;99.90;;;;;;5102568;28;19920;-81
2022/01/03 04:50:48;;;;;;;;;;;8.00;99.90;;;;;;5102807;28;19920;-81
2022/01/03 04:53:14;;;;;;;;;;;8.00;99.90;;;;;;5100307;28;20382;-81
2022/01/03 04:55:39;;;;;;;;;;;7.90;99.90;;;;;;5102297;28;19920;-81
2022/01/03 04:58:05;;;;;;;;;;;8.10;99.90;;;;;;5100517;28;20319;-82
2022/01/03 05:00:30;;;;;;;;;;;8.00;99.90;;;;;;5102031;28;19920;-81
2022/01/03 05:02:56;;;;;;;;;;;8.00;99.90;;;;;;5101466;28;19947;-81
2022/01/03 05:05:22;;;;;;;;;;;8.00;99.90;;;;;;5118086;28;19920;-81
2022/01/03 05:07:47;;;;;;;;;;;8.00;99.90;;;;;;5100531;28;19923;-81
2022/01/03 05:10:13;;;;;;;;;;;8.00;99.90;;;;;;5101968;28;19943;-81
2022/01/03 05:12:39;;;;;;;;;;;8.00;99.90;;;;;;5100201;28;19927;-87
2022/01/03 05:15:04;;;;;;;;;;;8.00;99.90;;;;;;5100306;28;19920;-81
2022/01/03 05:17:31;;;;;;;;;;;8.00;99.90;;;;;;5117415;28;19960;-81
2022/01/03 05:19:57;;;;;;;;;;;8.00;99.90;;;;;;5100721;28;20373;-83
2022/01/03 05:22:22;;;;;;;;;;;8.00;99.90;;;;;;5100636;28;20015;-81
2022/01/03 05:24:48;;;;;;;;;;;8.00;99.90;;;;;;5099775;28;19997;-81
2022/01/03 05:27:13;;;;;;;;;;;8.00;99.90;;;;;;5100116;28;19959;-81
2022/01/03 05:29:39;;;;;;;;;;;8.30;99.90;;;;;;5101593;28;19920;-87
2022/01/03 05:32:05;;;;;;;;;;;8.00;99.90;;;;;;5100797;28;19927;-81
2022/01/03 05:34:30;;;;;;;;;;;8.10;99.90;;;;;;5100630;28;20032;-81
2022/01/03 05:36:56;;;;;;;;;;;8.00;99.90;;;;;;5101432;28;20006;-81
2022/01/03 05:39:21;;;;;;;;;;;8.00;99.90;;;;;;5101556;28;20377;-81
2022/01/03 05:41:47;;;;;;;;;;;8.10;99.90;;;;;;5101639;28;20018;-82
2022/01/03 05:44:12;;;;;;;;;;;8.10;99.90;;;;;;5115509;28;19951;-81
2022/01/03 05:46:38;;;;;;;;;;;8.20;99.90;;;;;;5102468;28;19910;-81
2022/01/03 05:49:06;;;;;;;;;;;8.10;99.90;;;;;;5103161;28;20434;-82
2022/01/03 05:51:31;;;;;;;;;;;8.10;99.90;;;;;;5100241;28;19941;-81
2022/01/03 05:53:57;;;;;;;;;;;8.10;99.90;;;;;;5114687;28;20007;-82
2022/01/03 05:56:22;;;;;;;;;;;8.00;99.90;;;;;;5113719;28;19949;-81
2022/01/03 05:58:48;;;;;;;;;;;8.00;99.90;;;;;;5098315;28;20366;-81
2022/01/03 06:01:13;;;;;;;;;;;7.90;99.90;;;;;;5097246;28;19927;-86
2022/01/03 06:03:40;;;;;;;;;;;7.90;99.90;;;;;;5099782;28;19965;-87
2022/01/03 06:08:34;;;;;;;;;;;7.90;99.90;;;;;;5100614;28;19920;-81
2022/01/03 06:10:59;;;;;;;;;;;8.00;99.90;;;;;;5099481;28;19979;-81
2022/01/03 06:13:25;;;;;;;;;;;7.90;99.90;;;;;;5098988;28;20047;-81
2022/01/03 06:15:51;;;;;;;;;;;7.80;99.90;;;;;;5099847;28;19920;-87
2022/01/03 06:18:16;;;;;;;;;;;7.90;99.90;;;;;;5115600;28;19968;-85
2022/01/03 06:20:43;;;;;;;;;;;7.90;99.90;;;;;;5099839;28;19920;-86
2022/01/03 06:23:09;;;;;;;;;;;7.90;99.90;;;;;;5099120;28;19919;-81
2022/01/03 06:25:34;;;;;;;;;;;7.90;99.90;;;;;;5079783;28;20302;-81
2022/01/03 06:28:00;;;;;;;;;;;8.10;99.90;;;;;;5098499;28;19924;-81
2022/01/03 06:30:25;;;;;;;;;;;7.90;99.90;;;;;;5098553;28;19931;-81
2022/01/03 06:32:51;;;;;;;;;;;7.90;99.90;;;;;;5116170;28;20385;-87
2022/01/03 06:35:17;;;;;;;;;;;7.90;99.90;;;;;;5100768;28;19920;-85
2022/01/03 06:37:42;;;;;;;;;;;7.90;99.90;;;;;;5098870;28;20358;-82
2022/01/03 06:40:11;;;;;;;;;;;7.90;99.90;;;;;;5096880;28;20019;-81
2022/01/03 06:42:36;;;;;;;;;;;7.90;99.90;;;;;;5100251;28;20399;-81
2022/01/03 06:45:02;;;;;;;;;;;8.20;99.90;;;;;;5098580;28;19942;-81
2022/01/03 06:47:28;;;;;;;;;;;7.90;99.90;;;;;;5098939;28;19920;-81
2022/01/03 06:49:53;;;;;;;;;;;7.90;99.90;;;;;;5113577;28;19931;-87
2022/01/03 06:52:19;;;;;;;;;;;7.90;99.90;;;;;;5097524;28;19920;-81
2022/01/03 06:54:44;;;;;;;;;;;7.90;99.90;;;;;;5096900;28;19916;-81
2022/01/03 06:57:10;;;;;;;;;;;7.90;99.90;;;;;;5096893;28;19927;-81
2022/01/03 06:59:36;;;;;;;;;;;8.00;99.90;;;;;;5098287;28;20350;-81
2022/01/03 07:02:02;;;;;;;;;;;7.90;99.90;;;;;;5100747;28;19916;-81
2022/01/03 07:04:28;;;;;;;;;;;7.90;99.90;;;;;;5098187;28;19973;-81
2022/01/03 07:06:53;;;;;;;;;;;8.00;99.90;;;;;;5114907;28;19924;-87
2022/01/03 07:09:19;;;;;;;;;;;8.00;99.90;;;;;;5118613;28;19962;-81
2022/01/03 07:11:44;;;;;;;;;;;8.00;99.90;;;;;;5121184;28;19920;-83
2022/01/03 07:19:36;;;;;;;;;;;8.20;99.90;;;;;;5109222;28;19926;-81
2022/01/03 07:22:05;;;;;;;;;;;8.20;99.90;;;;;;5105299;28;19967;-81
2022/01/03 07:24:31;;;;;;;;;;;8.20;99.90;;;;;;5102366;28;19927;-87
2022/01/03 07:26:59;;;;;;;;;;;8.30;99.90;;;;;;5103807;28;19924;-81
2022/01/03 07:29:25;;;;;;;;;;;8.40;99.90;;;;;;5085781;28;20003;-86
2022/01/03 07:31:50;;;;;;;;;;;8.40;99.90;;;;;;5117714;28;20040;-89
2022/01/03 07:34:16;;;;;;;;;;;8.40;99.90;;;;;;5119864;28;20408;-81
2022/01/03 07:36:41;;;;;;;;;;;8.40;99.90;;;;;;5117669;28;19970;-81
2022/01/03 07:39:07;;;;;;;;;;;8.40;99.90;;;;;;5102339;28;19976;-83
2022/01/03 07:41:32;;;;;;;;;;;8.40;99.90;;;;;;5100934;28;19920;-81
2022/01/03 07:43:58;;;;;;;;;;;8.40;99.90;;;;;;5102560;28;19920;-81
2022/01/03 07:46:23;;;;;;;;;;;8.40;99.90;;;;;;5118089;28;19970;-86
2022/01/03 07:48:49;;;;;;;;;;;8.40;99.90;;;;;;5118504;28;19920;-81
2022/01/03 07:51:14;;;;;;;;;;;8.40;99.90;;;;;;5101921;28;20362;-82
2022/01/03 07:53:42;;;;;;;;;;;8.40;99.90;;;;;;5103420;28;20410;-87
2022/01/03 07:56:09;;;;;;;;;;;8.40;99.90;;;;;;5104512;28;19919;-81
2022/01/03 07:58:35;;;;;;;;;;;8.40;99.90;;;;;;5101547;28;19920;-80
2022/01/03 08:01:01;;;;;;;;;;;8.40;99.90;;;;;;5103070;28;20393;-81
2022/01/03 08:03:26;;;;;;;;;;;8.40;99.90;;;;;;5103704;28;19924;-81
2022/01/03 08:05:52;;;;;;;;;;;8.40;99.90;;;;;;5104698;28;19971;-81
2022/01/03 08:08:17;;;;;;;;;;;8.40;99.90;;;;;;5105458;28;19919;-81
2022/01/03 08:10:45;;;;;;;;;;;8.40;99.90;;;;;;5103698;28;20052;-81
2022/01/03 08:13:10;;;;;;;;;;;8.40;99.90;;;;;;5120360;28;19926;-81
2022/01/03 08:15:38;;;;;;;;;;;8.40;99.90;;;;;;5104652;28;19963;-81
2022/01/03 08:18:03;;;;;;;;;;;8.40;99.90;;;;;;5105449;28;19920;-81
2022/01/03 08:20:29;;;;;;;;;;;8.40;99.90;;;;;;5102194;28;19920;-81
2022/01/03 08:22:54;;;;;;;;;;;8.40;99.90;;;;;;5104550;28;20015;-81
2022/01/03 08:25:20;;;;;;;;;;;8.40;99.90;;;;;;5104128;28;19920;-82
2022/01/03 08:27:46;;;;;;;;;;;8.40;99.90;;;;;;5104381;28;19951;-81
2022/01/03 08:30:11;;;;;;;;;;;8.40;99.90;;;;;;5103551;28;19920;-81
2022/01/03 08:32:37;;;;;;;;;;;8.50;99.90;;;;;;5102874;28;20358;-81
2022/01/03 08:35:02;;;;;;;;;;;8.50;99.90;;;;;;5101873;28;19920;-81
2022/01/03 08:37:28;;;;;;;;;;;8.50;99.90;;;;;;5117601;28;19920;-81
2022/01/03 08:39:53;;;;;;;;;;;8.50;99.90;;;;;;5083315;28;19924;-81
2022/01/03 08:42:20;;;;;;;;;;;8.80;99.90;;;;;;5116994;28;19920;-81
2022/01/03 08:44:46;;;;;;;;;;;8.60;99.90;;;;;;5116902;28;20015;-81
2022/01/03 08:47:11;;;;;;;;;;;8.60;99.90;;;;;;5099253;28;19971;-81
2022/01/03 08:49:37;;;;;;;;;;;8.80;99.90;;;;;;5098877;28;19919;-81
2022/01/03 08:52:05;;;;;;;;;;;8.70;99.90;;;;;;5088805;28;19950;-81
2022/01/03 08:54:31;;;;;;;;;;;8.60;99.90;;;;;;5099442;28;19920;-81
2022/01/03 08:56:56;;;;;;;;;;;8.70;99.90;;;;;;5100909;28;20031;-81
2022/01/03 08:59:22;;;;;;;;;;;8.70;99.90;;;;;;5100683;28;19920;-81
2022/01/03 09:01:48;;;;;;;;;;;8.80;99.90;;;;;;5118411;28;19942;-83
2022/01/03 09:04:13;;;;;;;;;;;8.70;99.90;;;;;;5101585;28;20006;-81
2022/01/03 09:06:39;;;;;;;;;;;8.70;99.90;;;;;;5104263;28;19942;-81
2022/01/03 09:09:06;;;;;;;;;;;8.70;99.90;;;;;;5119093;28;19916;-81
2022/01/03 09:11:31;;;;;;;;;;;8.70;99.90;;;;;;5103015;28;19920;-81
2022/01/03 09:13:57;;;;;;;;;;;8.70;99.90;;;;;;5102244;28;20362;-81
2022/01/03 09:16:23;;;;;;;;;;;8.70;99.90;;;;;;5103007;28;20282;-81
2022/01/03 09:18:48;;;;;;;;;;;8.70;99.90;;;;;;5101461;28;20427;-81
2022/01/03 09:21:14;;;;;;;;;;;8.70;99.90;;;;;;5103354;28;19916;-81
2022/01/03 09:23:45;;;;;;;;;;;8.70;99.90;;;;;;5103682;28;19920;-81
2022/01/03 09:29:11;;;;;;;;;;;8.70;99.90;;;;;;5060569;28;20003;-82
2022/01/03 09:31:38;;;;;;;;;;;8.80;99.90;;;;;;5058914;28;19949;-81
2022/01/03 09:34:05;;;;;;;;;;;8.70;99.90;;;;;;5041227;28;19921;-81
2022/01/03 09:36:31;;;;;;;;;;;8.70;99.90;;;;;;5042060;28;19928;-81
2022/01/03 09:38:57;;;;;;;;;;;8.70;99.90;;;;;;5032761;28;19925;-81
2022/01/03 09:41:24;;;;;;;;;;;8.80;99.90;;;;;;5020935;28;19968;-81
2022/01/03 09:43:51;;;;;;;;;;;8.70;99.90;;;;;;5037958;28;19928;-81
2022/01/03 09:46:21;;;;;;;;;;;8.70;99.90;;;;;;5022062;28;19925;-81
2022/01/03 09:48:52;;;;;;;;;;;8.70;99.90;;;;;;5040021;28;19964;-81
2022/01/03 09:51:27;;;;;;;;;;;8.80;99.90;;;;;;5036557;28;19920;-81
2022/01/03 09:53:53;;;;;;;;;;;8.80;99.90;;;;;;5061001;28;19916;-81
2022/01/03 09:56:19;;;;;;;;;;;8.80;99.90;;;;;;5060143;28;20019;-81
2022/01/03 09:58:45;;;;;;;;;;;8.90;99.90;;;;;;5043756;28;19963;-81
2022/01/03 10:01:11;;;;;;;;;;;8.90;99.90;;;;;;5043290;28;19920;-81
2022/01/03 10:03:38;;;;;;;;;;;8.90;99.90;;;;;;5083191;28;20382;-81
2022/01/03 10:06:04;;;;;;;;;;;8.90;99.90;;;;;;5121423;28;19975;-82
2022/01/03 10:08:29;;;;;;;;;;;9.00;99.90;;;;;;5101839;28;19973;-81
2022/01/03 10:10:55;;;;;;;;;;;9.00;99.90;;;;;;5101524;28;19971;-81
2022/01/03 10:13:21;;;;;;;;;;;9.00;99.90;;;;;;5118215;28;19926;-81
2022/01/03 10:15:47;;;;;;;;;;;9.00;99.90;;;;;;5102732;28;19924;-81
2022/01/03 10:18:19;;;;;;;;;;;9.00;99.90;;;;;;5101784;28;19974;-81
2022/01/03 10:20:45;;;;;;;;;;;9.10;99.90;;;;;;5097919;28;19919;-87
2022/01/03 10:23:11;;;;;;;;;;;9.00;99.90;;;;;;5100012;28;19921;-81
2022/01/03 10:25:37;;;;;;;;;;;9.10;99.90;;;;;;5099911;28;19920;-87
2022/01/03 10:28:04;;;;;;;;;;;9.10;99.90;;;;;;5099400;28;19927;-87
2022/01/03 10:30:30;;;;;;;;;;;9.20;99.90;;;;;;5098949;28;19920;-81
2022/01/03 10:32:55;;;;;;;;;;;9.20;99.90;;;;;;5099581;28;19920;-81
2022/01/03 10:35:21;;;;;;;;;;;9.20;99.90;;;;;;5098328;28;19920;-81
2022/01/03 10:37:46;;;;;;;;;;;9.20;99.90;;;;;;5099256;28;19984;-81
2022/01/03 10:40:25;;;;;;;;;;;9.20;99.90;;;;;;5115331;28;20359;-81
2022/01/03 10:42:51;;;;;;;;;;;9.30;99.90;;;;;;5099342;28;19924;-81
2022/01/03 10:45:26;;;;;;;;;;;9.30;99.90;;;;;;5099569;28;19924;-83
2022/01/03 10:47:52;;;;;;;;;;;9.40;99.90;;;;;;5099544;28;19916;-81
2022/01/03 10:50:19;;;;;;;;;;;9.30;99.90;;;;;;5076592;28;19926;-83
2022/01/03 10:52:46;;;;;;;;;;;9.40;99.90;;;;;;5082772;28;19928;-81
2022/01/03 10:55:20;;;;;;;;;;;9.40;99.90;;;;;;5080185;28;19983;-81
2022/01/03 10:57:56;;;;;;;;;;;9.40;99.90;;;;;;5081772;28;19921;-81
2022/01/03 11:00:22;;;;;;;;;;;9.40;99.90;;;;;;5079395;28;20366;-81
2022/01/03 11:03:05;;;;;;;;;;;9.50;99.90;;;;;;5081085;28;19974;-81
2022/01/03 11:05:43;;;;;;;;;;;9.50;99.90;;;;;;5079113;28;19920;-81
2022/01/03 11:10:44;;;;;;;;;;;9.50;99.90;;;;;;5078614;28;20294;-81
2022/01/03 11:13:14;;;;;;;;;;;9.50;99.90;;;;;;5079307;28;19916;-81
2022/01/03 11:15:51;;;;;;;;;;;9.50;99.90;;;;;;5077675;28;19971;-82
2022/01/03 11:18:20;;;;;;;;;;;9.50;99.90;;;;;;5077831;28;19969;-81
2022/01/03 11:20:47;;;;;;;;;;;9.50;99.90;;;;;;5077984;28;19927;-81
2022/01/03 11:23:18;;;;;;;;;;;9.50;99.90;;;;;;5078788;28;20305;-81
2022/01/03 11:25:44;;;;;;;;;;;9.50;99.90;;;;;;5081192;28;19927;-81
2022/01/03 11:28:09;;;;;;;;;;;9.50;99.90;;;;;;5080032;28;19920;-82
2022/01/03 11:30:36;;;;;;;;;;;9.50;99.90;;;;;;5079729;28;19927;-81
2022/01/03 11:33:04;;;;;;;;;;;9.60;99.90;;;;;;5079520;28;20370;-82
2022/01/03 11:35:31;;;;;;;;;;;9.60;99.90;;;;;;5077471;28;19920;-81
2022/01/03 11:37:58;;;;;;;;;;;9.50;99.90;;;;;;5078055;28;19924;-81
2022/01/03 11:40:23;;;;;;;;;;;9.60;99.90;;;;;;5079347;28;20409;-82
2022/01/03 11:42:49;;;;;;;;;;;9.60;99.90;;;;;;5079285;28;19921;-81
2022/01/03 11:45:15;;;;;;;;;;;9.70;99.90;;;;;;5078602;28;19920;-82
2022/01/03 11:47:40;;;;;;;;;;;9.90;99.90;;;;;;5080049;28;20007;-82
2022/01/03 11:50:07;;;;;;;;;;;9.90;99.90;;;;;;5079623;28;19978;-82
2022/01/03 11:52:38;;;;;;;;;;;10.00;99.90;;;;;;5079700;28;19920;-81
2022/01/03 11:55:05;;;;;;;;;;;10.00;99.90;;;;;;5080345;28;19927;-81
2022/01/03 11:57:56;;;;;;;;;;;10.10;99.90;;;;;;5085336;28;19973;-82
2022/01/03 12:05:51;;;;;;;;;;;10.20;99.90;;;;;;5081566;28;19920;-84
2022/01/03 12:08:21;;;;;;;;;;;10.20;99.90;;;;;;5081012;28;19925;-81
2022/01/03 12:10:47;;;;;;;;;;;10.20;99.90;;;;;;5081345;28;19924;-87
2022/01/03 12:13:12;;;;;;;;;;;10.10;99.90;;;;;;5080655;28;19916;-82
2022/01/03 12:15:41;;;;;;;;;;;10.10;99.90;;;;;;5083583;28;19959;-81
2022/01/03 12:18:25;;;;;;;;;;;10.10;99.90;;;;;;5083995;28;19932;-81
2022/01/03 12:20:51;;;;;;;;;;;10.00;99.90;;;;;;5082224;28;19985;-87
2022/01/03 12:23:35;;;;;;;;;;;10.00;99.90;;;;;;5083183;28;19924;-81
2022/01/03 12:26:08;;;;;;;;;;;10.00;99.90;;;;;;5082966;28;19925;-81
2022/01/03 12:28:53;;;;;;;;;;;10.10;99.90;;;;;;5084610;28;19916;-81
2022/01/03 12:31:18;;;;;;;;;;;10.10;99.90;;;;;;5083230;28;20328;-82
2022/01/03 12:34:04;;;;;;;;;;;10.10;99.90;;;;;;5083993;28;19917;-81
2022/01/03 12:36:29;;;;;;;;;;;10.10;99.90;;;;;;5082719;28;19921;-81
2022/01/03 12:39:05;;;;;;;;;;;10.10;99.90;;;;;;5083406;28;19924;-81
2022/01/03 12:41:49;;;;;;;;;;;10.10;99.90;;;;;;5084780;28;19920;-82
2022/01/03 12:44:34;;;;;;;;;;;10.10;99.90;;;;;;5084082;28;19921;-81
2022/01/03 12:47:18;;;;;;;;;;;10.10;99.90;;;;;;5084382;28;19920;-81
2022/01/03 12:49:44;;;;;;;;;;;10.10;99.90;;;;;;5084443;28;19921;-82
2022/01/03 12:52:12;;;;;;;;;;;10.10;99.90;;;;;;5083566;28;20015;-81
2022/01/03 12:54:41;;;;;;;;;;;10.40;99.90;;;;;;5081638;28;20007;-82
2022/01/03 12:57:11;;;;;;;;;;;10.20;99.90;;;;;;5083462;28;20390;-81
2022/01/03 12:59:36;;;;;;;;;;;10.20;99.90;;;;;;5083578;28;20011;-81
2022/01/03 13:02:21;;;;;;;;;;;10.20;99.90;;;;;;5084014;28;20267;-82
2022/01/03 13:04:47;;;;;;;;;;;10.20;99.90;;;;;;5080929;28;20404;-81
2022/01/03 13:07:12;;;;;;;;;;;10.10;99.90;;;;;;5083138;28;19924;-82
2022/01/03 13:09:39;;;;;;;;;;;10.10;99.90;;;;;;5082244;28;19982;-82
2022/01/03 13:12:05;;;;;;;;;;;10.10;99.90;;;;;;5083442;28;19920;-82
2022/01/03 13:14:31;;;;;;;;;;;10.10;99.90;;;;;;5082605;28;19927;-81
2022/01/03 13:16:58;;;;;;;;;;;10.10;99.90;;;;;;5081982;28;19980;-82
2022/01/03 13:19:26;;;;;;;;;;;10.10;99.90;;;;;;5083354;28;20397;-82
2022/01/03 13:21:57;;;;;;;;;;;10.10;99.90;;;;;;5081892;28;19921;-82
2022/01/03 13:24:24;;;;;;;;;;;10.10;99.90;;;;;;5082540;28;19928;-82
2022/01/03 13:26:51;;;;;;;;;;;10.20;99.90;;;;;;5082473;28;19926;-81
2022/01/03 13:29:16;;;;;;;;;;;10.10;99.90;;;;;;5082396;28;20402;-85
2022/01/03 13:31:42;;;;;;;;;;;10.10;99.90;;;;;;5082101;28;19926;-81
2022/01/03 13:34:07;;;;;;;;;;;10.10;99.90;;;;;;5082685;28;19966;-81
2022/01/03 13:36:33;;;;;;;;;;;10.10;99.90;;;;;;5086909;28;19916;-82
2022/01/03 13:39:09;;;;;;;;;;;10.20;99.90;;;;;;5082622;28;19921;-82
2022/01/03 13:41:36;;;;;;;;;;;10.00;99.90;;;;;;5078621;28;19972;-87
2022/01/03 13:44:01;;;;;;;;;;;10.00;99.90;;;;;;5079008;28;20525;-88
2022/01/03 13:49:13;;;;;;;;;;;10.10;99.90;;;;;;5082372;28;19921;-82
2022/01/03 13:51:49;;;;;;;;;;;10.20;99.90;;;;;;5080750;28;20013;-82
2022/01/03 13:54:22;;;;;;;;;;;10.30;99.90;;;;;;5063948;28;19928;-82
2022/01/03 13:56:48;;;;;;;;;;;10.30;99.90;;;;;;5080427;28;19920;-81
2022/01/03 13:59:14;;;;;;;;;;;10.40;99.90;;;;;;5079910;28;20244;-83
2022/01/03 14:01:39;;;;;;;;;;;10.30;99.90;;;;;;5080786;28;20298;-81
2022/01/03 14:04:05;;;;;;;;;;;10.30;99.90;;;;;;5081622;28;19927;-81
2022/01/03 14:06:31;;;;;;;;;;;10.30;99.90;;;;;;5081404;28;20023;-81
2022/01/03 14:08:57;;;;;;;;;;;10.30;99.90;;;;;;5064634;28;20340;-81
2022/01/03 14:11:24;;;;;;;;;;;10.30;99.90;;;;;;5082308;28;19982;-81
2022/01/03 14:13:50;;;;;;;;;;;10.30;99.90;;;;;;5082466;28;19920;-83
2022/01/03 14:16:16;;;;;;;;;;;10.20;99.90;;;;;;5082078;28;19923;-84
2022/01/03 14:18:45;;;;;;;;;;;10.10;99.90;;;;;;5080309;28;20386;-87
2022/01/03 14:21:26;;;;;;;;;;;10.00;99.90;;;;;;5079721;28;20413;-82
2022/01/03 14:23:53;;;;;;;;;;;9.90;99.90;;;;;;5079876;28;19984;-87
2022/01/03 14:26:19;;;;;;;;;;;9.80;99.90;;;;;;5082214;28;19983;-82
2022/01/03 14:28:45;;;;;;;;;;;9.80;99.90;;;;;;5083537;28;19920;-82
2022/01/03 14:31:11;;;;;;;;;;;9.70;99.90;;;;;;5081710;28;20267;-81
2022/01/03 14:33:39;;;;;;;;;;;9.70;99.90;;;;;;5081091;28;19931;-81
2022/01/03 14:36:10;;;;;;;;;;;9.80;99.90;;;;;;5078837;28;20294;-81
2022/01/03 14:38:38;;;;;;;;;;;9.60;99.90;;;;;;5081888;28;20007;-82
2022/01/03 14:41:03;;;;;;;;;;;9.50;99.90;;;;;;5080956;28;19926;-82
2022/01/03 14:43:29;;;;;;;;;;;9.50;99.90;;;;;;5081371;28;19944;-82
2022/01/03 14:46:04;;;;;;;;;;;9.40;99.90;;;;;;5080592;28;20367;-82
2022/01/03 14:48:30;;;;;;;;;;;9.50;99.90;;;;;;5083929;28;20065;-81
2022/01/03 14:51:09;;;;;;;;;;;9.20;99.90;;;;;;5098096;28;19977;-87
2022/01/03 14:53:35;;;;;;;;;;;9.20;99.90;;;;;;5100491;28;19927;-81